createdAt,value
2022-11-13T00:00:51.448Z,4.34
2022-11-13T00:03:17.641Z,4.34
2022-11-13T00:05:43.856Z,4.37
2022-11-13T00:08:10.086Z,4.42
2022-11-13T00:10:36.310Z,4.38
2022-11-13T00:13:02.560Z,4.36
2022-11-13T00:15:28.781Z,4.06
2022-11-13T00:17:54.985Z,3.91
2022-11-13T00:20:21.199Z,3.97
2022-11-13T00:22:47.396Z,4.02
2022-11-13T00:25:13.601Z,4.11
2022-11-13T00:27:39.825Z,4.12
2022-11-13T00:30:06.291Z,4.10
2022-11-13T00:32:32.504Z,4.02
2022-11-13T00:34:58.703Z,3.87
2022-11-13T00:37:24.945Z,3.90
2022-11-13T00:39:53.416Z,3.93
2022-11-13T00:42:23.250Z,3.92
2022-11-13T00:44:49.458Z,3.86
2022-11-13T00:47:15.677Z,3.79
2022-11-13T00:49:41.872Z,3.79
2022-11-13T00:52:08.076Z,3.83
2022-11-13T00:54:34.283Z,3.94
2022-11-13T00:57:00.508Z,3.95
2022-11-13T00:59:26.709Z,3.96
2022-11-13T01:01:52.938Z,3.89
2022-11-13T01:04:19.173Z,3.96
2022-11-13T01:06:45.442Z,4.06
2022-11-13T01:09:11.678Z,4.11
2022-11-13T01:11:37.899Z,4.20
2022-11-13T01:14:04.099Z,4.19
2022-11-13T01:16:30.320Z,4.23
2022-11-13T01:18:56.536Z,4.26
2022-11-13T01:21:23.599Z,4.18
2022-11-13T01:23:49.833Z,4.08
2022-11-13T01:26:16.926Z,4.01
2022-11-13T01:28:43.181Z,3.85
2022-11-13T01:31:10.314Z,3.99
2022-11-13T01:33:36.512Z,4.12
2022-11-13T01:36:03.743Z,4.10
2022-11-13T01:38:34.316Z,4.17
2022-11-13T01:41:02.312Z,4.23
2022-11-13T01:43:29.461Z,4.24
2022-11-13T01:45:58.629Z,4.19
2022-11-13T01:48:26.141Z,4.20
2022-11-13T01:50:52.582Z,4.19
2022-11-13T01:53:18.826Z,4.18
2022-11-13T01:55:45.103Z,4.11
2022-11-13T01:58:11.312Z,4.07
2022-11-13T02:00:37.555Z,4.06
2022-11-13T02:03:03.777Z,4.14
2022-11-13T02:05:29.997Z,4.18
2022-11-13T02:07:56.199Z,4.07
2022-11-13T02:10:22.418Z,4.07
2022-11-13T02:12:49.679Z,4.08
2022-11-13T02:15:15.889Z,4.07
2022-11-13T02:17:42.987Z,4.07
2022-11-13T02:20:09.330Z,4.12
2022-11-13T02:22:36.840Z,4.20
2022-11-13T02:25:03.433Z,4.19
2022-11-13T02:27:34.357Z,4.17
2022-11-13T02:30:15.893Z,4.19
2022-11-13T02:32:43.289Z,4.21
2022-11-13T02:35:09.490Z,4.22
2022-11-13T02:37:35.706Z,4.22
2022-11-13T02:40:01.909Z,4.29
2022-11-13T02:42:28.111Z,4.31
2022-11-13T02:44:54.319Z,4.27
2022-11-13T02:47:20.709Z,4.29
2022-11-13T02:49:46.919Z,4.26
2022-11-13T02:52:13.176Z,4.25
2022-11-13T02:54:39.417Z,4.29
2022-11-13T02:57:05.637Z,4.23
2022-11-13T02:59:31.842Z,4.19
2022-11-13T03:01:58.085Z,4.23
2022-11-13T03:04:24.305Z,4.23
2022-11-13T03:06:50.588Z,4.21
2022-11-13T03:09:16.863Z,4.20
2022-11-13T03:11:43.489Z,4.17
2022-11-13T03:14:09.698Z,4.18
2022-11-13T03:16:35.910Z,4.12
2022-11-13T03:19:02.391Z,4.16
2022-11-13T03:21:28.608Z,4.08
2022-11-13T03:23:54.807Z,4.10
2022-11-13T03:26:21.029Z,4.08
2022-11-13T03:28:47.231Z,4.06
2022-11-13T03:31:13.464Z,4.05
2022-11-13T03:33:39.664Z,3.80
2022-11-13T03:36:05.988Z,3.81
2022-11-13T03:38:32.242Z,3.83
2022-11-13T03:40:58.436Z,3.70
2022-11-13T03:43:24.639Z,3.81
2022-11-13T03:45:50.846Z,3.91
2022-11-13T03:48:17.135Z,3.94
2022-11-13T03:50:45.595Z,3.96
2022-11-13T03:53:12.089Z,3.99
2022-11-13T03:55:38.296Z,4.01
2022-11-13T03:58:04.539Z,3.97
2022-11-13T04:00:30.741Z,3.91
2022-11-13T04:02:56.957Z,3.90
2022-11-13T04:05:23.200Z,3.77
2022-11-13T04:07:49.424Z,3.65
2022-11-13T04:10:15.645Z,3.64
2022-11-13T04:12:41.861Z,3.73
2022-11-13T04:15:08.184Z,3.56
2022-11-13T04:17:34.385Z,3.38
2022-11-13T04:20:00.589Z,3.46
2022-11-13T04:22:26.809Z,3.51
2022-11-13T04:24:53.020Z,3.48
2022-11-13T04:27:19.236Z,3.47
2022-11-13T04:29:45.446Z,3.54
2022-11-13T04:32:11.661Z,3.56
2022-11-13T04:34:37.871Z,3.46
2022-11-13T04:37:04.085Z,3.48
2022-11-13T04:39:30.292Z,3.52
2022-11-13T04:41:56.498Z,3.53
2022-11-13T04:44:22.719Z,3.45
2022-11-13T04:46:48.917Z,3.63
2022-11-13T04:49:15.136Z,3.55
2022-11-13T04:51:41.350Z,3.41
2022-11-13T04:54:07.553Z,3.28
2022-11-13T04:56:33.744Z,3.42
2022-11-13T04:58:59.959Z,3.41
2022-11-13T05:01:26.180Z,3.48
2022-11-13T05:03:52.412Z,3.40
2022-11-13T05:06:18.611Z,3.44
2022-11-13T05:08:44.821Z,3.49
2022-11-13T05:11:11.036Z,3.50
2022-11-13T05:13:37.250Z,3.56
2022-11-13T05:16:04.231Z,3.45
2022-11-13T05:18:31.547Z,3.52
2022-11-13T05:20:57.918Z,3.57
2022-11-13T05:23:24.143Z,3.50
2022-11-13T05:25:50.433Z,3.51
2022-11-13T05:28:16.750Z,3.41
2022-11-13T05:30:42.945Z,3.47
2022-11-13T05:33:09.169Z,3.45
2022-11-13T05:35:35.448Z,3.40
2022-11-13T05:38:01.766Z,3.42
2022-11-13T05:40:28.457Z,3.29
2022-11-13T05:42:55.150Z,3.30
2022-11-13T05:45:21.526Z,3.34
2022-11-13T05:47:47.748Z,3.49
2022-11-13T05:50:14.297Z,3.62
2022-11-13T05:52:40.489Z,3.90
2022-11-13T05:55:07.046Z,4.14
2022-11-13T05:57:33.264Z,4.27
2022-11-13T05:59:59.485Z,4.79
2022-11-13T06:02:25.743Z,4.72
2022-11-13T06:04:56.404Z,4.96
2022-11-13T06:07:22.912Z,5.42
2022-11-13T06:09:49.138Z,5.87
2022-11-13T06:12:15.362Z,6.13
2022-11-13T06:14:41.569Z,6.26
2022-11-13T06:17:07.764Z,6.46
2022-11-13T06:19:37.094Z,6.69
2022-11-13T06:22:03.302Z,6.71
2022-11-13T06:24:29.512Z,6.85
2022-11-13T06:26:55.715Z,6.86
2022-11-13T06:29:21.923Z,7.10
2022-11-13T06:31:48.116Z,7.17
2022-11-13T06:34:14.324Z,7.40
2022-11-13T06:36:40.520Z,7.49
2022-11-13T06:39:09.833Z,7.47
2022-11-13T06:41:37.134Z,7.57
2022-11-13T06:44:03.677Z,7.70
2022-11-13T06:46:29.983Z,7.68
2022-11-13T06:48:56.214Z,7.80
2022-11-13T06:51:23.524Z,7.77
2022-11-13T06:53:49.736Z,7.77
2022-11-13T06:56:15.937Z,7.81
2022-11-13T06:58:42.205Z,7.83
2022-11-13T07:01:09.033Z,7.84
2022-11-13T07:03:35.277Z,7.90
2022-11-13T07:06:04.736Z,7.77
2022-11-13T07:08:31.377Z,7.84
2022-11-13T07:10:57.787Z,7.83
2022-11-13T07:13:24.110Z,7.83
2022-11-13T07:15:50.322Z,7.94
2022-11-13T07:18:19.084Z,7.95
2022-11-13T07:20:49.125Z,7.99
2022-11-13T07:23:15.330Z,7.99
2022-11-13T07:25:41.548Z,8.04
2022-11-13T07:28:07.762Z,8.29
2022-11-13T07:30:33.971Z,8.31
2022-11-13T07:33:03.406Z,8.26
2022-11-13T07:35:29.621Z,8.26
2022-11-13T07:37:56.135Z,8.32
2022-11-13T07:40:22.339Z,8.54
2022-11-13T07:42:48.545Z,8.57
2022-11-13T07:45:14.765Z,8.64
2022-11-13T07:47:40.972Z,8.67
2022-11-13T07:50:10.909Z,8.72
2022-11-13T07:52:37.360Z,8.72
2022-11-13T07:55:03.595Z,8.84
2022-11-13T07:57:29.811Z,8.88
2022-11-13T07:59:56.021Z,8.92
2022-11-13T08:02:26.299Z,8.96
2022-11-13T08:04:53.017Z,8.99
2022-11-13T08:07:19.256Z,9.02
2022-11-13T08:09:45.533Z,9.08
2022-11-13T08:12:11.731Z,9.19
2022-11-13T08:14:37.954Z,9.25
2022-11-13T08:17:04.163Z,9.25
2022-11-13T08:19:30.384Z,9.26
2022-11-13T08:21:56.580Z,9.37
2022-11-13T08:24:23.716Z,9.46
2022-11-13T08:26:49.922Z,9.53
2022-11-13T08:29:16.133Z,9.63
2022-11-13T08:31:42.342Z,9.61
2022-11-13T08:34:08.545Z,9.72
2022-11-13T08:36:34.762Z,9.72
2022-11-13T08:39:00.963Z,9.77
2022-11-13T08:41:27.168Z,9.90
2022-11-13T08:43:53.378Z,10.00
2022-11-13T08:46:19.589Z,10.08
2022-11-13T08:48:46.011Z,10.10
2022-11-13T08:51:12.232Z,10.00
2022-11-13T08:53:38.432Z,9.95
2022-11-13T08:56:04.717Z,10.00
2022-11-13T08:58:31.265Z,9.96
2022-11-13T09:01:01.213Z,10.00
2022-11-13T09:03:27.465Z,9.95
2022-11-13T09:05:53.720Z,9.93
2022-11-13T09:08:19.929Z,10.05
2022-11-13T09:10:46.136Z,10.03
2022-11-13T09:13:12.331Z,10.05
2022-11-13T09:15:38.880Z,10.10
2022-11-13T09:18:05.346Z,9.99
2022-11-13T09:20:33.465Z,10.13
2022-11-13T09:23:00.234Z,10.22
2022-11-13T09:25:35.828Z,10.23
2022-11-13T09:28:03.427Z,10.27
2022-11-13T09:30:32.945Z,10.12
2022-11-13T09:32:59.942Z,10.09
2022-11-13T09:35:26.375Z,10.08
2022-11-13T09:37:52.611Z,10.10
2022-11-13T09:40:27.204Z,10.05
2022-11-13T09:42:53.458Z,10.10
2022-11-13T09:45:34.345Z,9.95
2022-11-13T10:10:23.726Z,10.14
2022-11-13T10:12:51.062Z,10.03
2022-11-13T10:15:17.266Z,9.85
2022-11-13T10:18:00.133Z,10.02
2022-11-13T10:20:39.449Z,10.01
2022-11-13T10:23:08.448Z,10.09
2022-11-13T10:25:36.159Z,9.90
2022-11-13T10:28:21.573Z,10.03
2022-11-13T10:30:48.942Z,10.06
2022-11-13T10:33:17.392Z,10.02
2022-11-13T10:35:55.623Z,9.97
2022-11-13T10:38:32.083Z,9.98
2022-11-13T10:41:05.329Z,9.93
2022-11-13T10:43:31.805Z,9.93
2022-11-13T10:45:59.070Z,9.93
2022-11-13T10:48:26.627Z,9.83
2022-11-13T10:50:57.217Z,9.83
2022-11-13T10:53:23.429Z,9.74
2022-11-13T10:55:50.471Z,9.71
2022-11-13T10:58:17.099Z,9.78
2022-11-13T11:00:43.411Z,9.73
2022-11-13T11:03:15.762Z,9.71
2022-11-13T11:05:51.089Z,9.73
2022-11-13T11:08:17.478Z,9.66
2022-11-13T11:10:43.797Z,9.63
2022-11-13T11:13:10.936Z,9.68
2022-11-13T11:15:42.251Z,9.63
2022-11-13T11:18:17.689Z,9.64
2022-11-13T11:20:47.756Z,9.58
2022-11-13T11:23:13.929Z,9.64
2022-11-13T11:26:00.663Z,9.72
2022-11-13T11:28:29.143Z,9.78
2022-11-13T11:30:56.765Z,9.76
2022-11-13T11:33:28.888Z,9.72
2022-11-13T11:36:18.415Z,9.68
2022-11-13T11:38:53.078Z,9.74
2022-11-13T11:41:20.206Z,9.71
2022-11-13T11:43:48.495Z,9.76
2022-11-13T11:46:15.305Z,9.77
2022-11-13T11:48:41.540Z,9.79
2022-11-13T11:51:07.697Z,9.80
2022-11-13T11:53:55.849Z,9.81
2022-11-13T11:56:23.901Z,9.86
2022-11-13T11:58:54.886Z,9.96
2022-11-13T12:01:35.289Z,9.95
2022-11-13T12:04:16.154Z,9.94
2022-11-13T12:06:57.644Z,9.96
2022-11-13T12:09:28.080Z,9.96
2022-11-13T12:11:54.251Z,9.99
2022-11-13T12:14:23.284Z,10.07
2022-11-13T12:17:16.481Z,10.06
2022-11-13T12:19:49.425Z,10.05
2022-11-13T12:22:30.842Z,10.09
2022-11-13T12:24:57.340Z,10.05
2022-11-13T12:27:35.024Z,10.13
2022-11-13T12:30:04.352Z,10.17
2022-11-13T12:32:38.953Z,10.30
2022-11-13T12:35:09.940Z,10.29
2022-11-13T12:37:36.148Z,10.36
2022-11-13T12:40:13.133Z,10.32
2022-11-13T12:42:41.931Z,10.24
2022-11-13T12:45:13.905Z,10.31
2022-11-13T12:47:40.125Z,10.44
2022-11-13T12:50:19.576Z,10.45
2022-11-13T12:52:45.799Z,10.42
2022-11-13T12:55:25.358Z,10.38
2022-11-13T12:57:51.571Z,10.38
2022-11-13T13:00:25.448Z,10.35
2022-11-13T13:03:02.853Z,10.42
2022-11-13T13:05:35.212Z,10.38
2022-11-13T13:08:05.432Z,10.46
2022-11-13T13:10:50.138Z,10.45
2022-11-13T13:13:34.866Z,10.47
2022-11-13T13:16:04.338Z,10.43
2022-11-13T13:18:32.496Z,10.33
2022-11-13T13:21:07.850Z,10.38
2022-11-13T13:23:35.079Z,10.37
2022-11-13T13:26:01.861Z,10.29
2022-11-13T13:28:28.486Z,10.27
2022-11-13T13:31:03.561Z,10.29
2022-11-13T13:33:48.506Z,10.29
2022-11-13T13:36:44.048Z,10.37
2022-11-13T13:39:22.050Z,10.30
2022-11-13T13:41:48.207Z,10.37
2022-11-13T13:44:26.120Z,10.36
2022-11-13T13:46:52.333Z,10.29
2022-11-13T13:49:19.585Z,10.24
2022-11-13T13:51:46.564Z,10.29
2022-11-13T13:54:15.074Z,10.34
2022-11-13T13:56:41.318Z,10.36
2022-11-13T13:59:13.772Z,10.32
2022-11-13T14:01:40.025Z,10.38
2022-11-13T14:04:12.046Z,10.44
2022-11-13T14:06:46.910Z,10.41
2022-11-13T14:09:20.164Z,10.42
2022-11-13T14:11:46.373Z,10.42
2022-11-13T14:14:22.200Z,10.41
2022-11-13T14:16:52.415Z,10.43
2022-11-13T14:19:18.718Z,10.48
2022-11-13T14:21:45.050Z,10.51
2022-11-13T14:24:14.232Z,10.45
2022-11-13T14:26:40.428Z,10.47
2022-11-13T14:29:11.162Z,10.48
2022-11-13T14:31:37.531Z,10.50
2022-11-13T14:34:10.797Z,10.51
2022-11-13T14:36:37.006Z,10.48
2022-11-13T14:39:03.250Z,10.45
2022-11-13T14:41:40.016Z,10.50
2022-11-13T14:44:06.259Z,10.48
2022-11-13T14:46:42.532Z,10.52
2022-11-13T14:49:14.956Z,10.48
2022-11-13T14:51:41.153Z,10.53
2022-11-13T14:54:08.929Z,10.48
2022-11-13T14:56:39.139Z,10.48
2022-11-13T14:59:19.585Z,10.51
2022-11-13T15:01:58.249Z,10.44
2022-11-13T15:04:24.748Z,10.45
2022-11-13T15:06:51.024Z,10.43
2022-11-13T15:09:17.371Z,10.48
2022-11-13T15:11:43.569Z,10.44
2022-11-13T15:14:13.410Z,10.42
2022-11-13T15:16:39.617Z,10.46
2022-11-13T15:19:08.189Z,10.45
2022-11-13T15:21:34.469Z,10.44
2022-11-13T15:24:00.716Z,10.45
2022-11-13T15:26:26.926Z,10.41
2022-11-13T15:28:53.408Z,10.47
2022-11-13T15:31:26.784Z,10.46
2022-11-13T15:33:52.989Z,10.40
2022-11-13T15:36:19.223Z,10.40
2022-11-13T15:38:45.432Z,10.41
2022-11-13T15:41:12.567Z,10.41
2022-11-13T15:43:39.118Z,10.37
2022-11-13T15:46:05.332Z,10.40
2022-11-13T15:48:31.563Z,10.36
2022-11-13T15:50:57.764Z,10.40
2022-11-13T15:53:23.972Z,10.36
2022-11-13T15:55:51.866Z,10.38
2022-11-13T15:58:18.091Z,10.33
2022-11-13T16:00:44.300Z,10.35
2022-11-13T16:03:10.528Z,10.32
2022-11-13T16:05:36.778Z,10.32
2022-11-13T16:08:07.789Z,10.31
2022-11-13T16:10:34.003Z,10.30
2022-11-13T16:13:00.223Z,10.29
2022-11-13T16:15:26.428Z,10.28
2022-11-13T16:17:53.423Z,10.27
2022-11-13T16:20:19.647Z,10.25
2022-11-13T16:22:45.895Z,10.25
2022-11-13T16:25:12.981Z,10.24
2022-11-13T16:27:39.193Z,10.27
2022-11-13T16:30:07.219Z,10.28
2022-11-13T16:32:33.609Z,10.28
2022-11-13T16:34:59.833Z,10.25
2022-11-13T16:37:26.047Z,10.32
2022-11-13T16:39:52.256Z,10.27
2022-11-13T16:42:18.477Z,10.20
2022-11-13T16:44:44.741Z,10.20
2022-11-13T16:47:29.150Z,10.19
2022-11-13T16:49:55.381Z,10.17
2022-11-13T16:52:21.589Z,10.21
2022-11-13T16:54:47.881Z,10.20
2022-11-13T16:57:14.130Z,10.23
2022-11-13T16:59:40.400Z,10.16
2022-11-13T17:02:13.156Z,10.16
2022-11-13T17:04:39.374Z,10.20
2022-11-13T17:07:05.605Z,10.17
2022-11-13T17:09:31.834Z,10.18
2022-11-13T17:11:58.027Z,10.18
2022-11-13T17:14:24.233Z,10.14
2022-11-13T17:16:50.450Z,10.17
2022-11-13T17:19:16.670Z,10.15
2022-11-13T17:21:44.458Z,10.14
2022-11-13T17:24:10.885Z,10.11
2022-11-13T17:26:37.085Z,10.10
2022-11-13T17:29:03.305Z,10.11
2022-11-13T17:31:29.522Z,10.10
2022-11-13T17:33:56.507Z,10.12
2022-11-13T17:36:23.072Z,10.11
2022-11-13T17:38:49.281Z,10.16
2022-11-13T17:41:15.761Z,10.08
2022-11-13T17:43:42.088Z,10.07
2022-11-13T17:46:12.209Z,10.09
2022-11-13T17:48:38.418Z,10.09
2022-11-13T17:51:05.450Z,10.08
2022-11-13T17:53:31.975Z,10.14
2022-11-13T17:56:01.723Z,10.03
2022-11-13T17:58:28.114Z,9.94
2022-11-13T18:00:54.464Z,9.90
2022-11-13T18:03:20.683Z,9.86
2022-11-13T18:05:46.904Z,9.78
2022-11-13T18:08:13.130Z,9.77
2022-11-13T18:10:39.558Z,9.76
2022-11-13T18:13:05.999Z,9.72
2022-11-13T18:15:35.318Z,9.72
2022-11-13T18:18:01.669Z,9.76
2022-11-13T18:20:27.925Z,9.76
2022-11-13T18:22:54.387Z,9.76
2022-11-13T18:25:20.599Z,9.78
2022-11-13T18:27:46.882Z,9.72
2022-11-13T18:30:13.105Z,9.66
2022-11-13T18:32:39.318Z,9.67
2022-11-13T18:35:05.621Z,9.65
2022-11-13T18:37:31.834Z,9.65
2022-11-13T18:39:58.048Z,9.70
2022-11-13T18:42:24.387Z,9.65
2022-11-13T18:44:50.637Z,9.60
2022-11-13T18:47:16.861Z,9.62
2022-11-13T18:49:43.072Z,9.66
2022-11-13T18:52:09.287Z,9.63
2022-11-13T18:54:35.553Z,9.58
2022-11-13T18:57:01.837Z,9.62
2022-11-13T18:59:28.040Z,9.62
2022-11-13T19:01:54.342Z,9.60
2022-11-13T19:04:23.293Z,9.55
2022-11-13T19:06:50.364Z,9.54
2022-11-13T19:09:16.684Z,9.60
2022-11-13T19:11:42.922Z,9.52
2022-11-13T19:14:13.528Z,9.59
2022-11-13T19:16:39.859Z,9.66
2022-11-13T19:19:07.057Z,9.64
2022-11-13T19:21:33.797Z,9.66
2022-11-13T19:24:00.073Z,9.66
2022-11-13T19:26:26.320Z,9.60
2022-11-13T19:28:52.721Z,9.59
2022-11-13T19:31:19.825Z,9.51
2022-11-13T19:33:46.085Z,9.50
2022-11-13T19:36:13.132Z,9.53
2022-11-13T19:38:39.338Z,9.55
2022-11-13T19:41:05.620Z,9.59
2022-11-13T19:43:32.267Z,9.51
2022-11-13T19:46:01.912Z,9.54
2022-11-13T19:48:28.162Z,9.56
2022-11-13T19:50:54.405Z,9.52
2022-11-13T19:53:20.617Z,9.49
2022-11-13T19:55:55.983Z,9.58
2022-11-13T19:58:22.187Z,9.53
2022-11-13T20:00:48.701Z,9.47
2022-11-13T20:03:14.914Z,9.49
2022-11-13T20:05:41.563Z,9.49
2022-11-13T20:08:07.856Z,9.47
2022-11-13T20:10:34.053Z,9.48
2022-11-13T20:13:00.292Z,9.43
2022-11-13T20:15:26.504Z,9.42
2022-11-13T20:17:52.731Z,9.41
2022-11-13T20:20:18.948Z,9.42
2022-11-13T20:22:45.159Z,9.44
2022-11-13T20:25:11.374Z,9.37
2022-11-13T20:27:37.800Z,9.33
2022-11-13T20:30:04.465Z,9.25
2022-11-13T20:32:30.676Z,9.33
2022-11-13T20:34:56.873Z,9.28
2022-11-13T20:37:23.091Z,9.26
2022-11-13T20:39:49.312Z,9.20
2022-11-13T20:42:15.526Z,9.21
2022-11-13T20:44:41.747Z,9.18
2022-11-13T20:47:07.975Z,9.18
2022-11-13T20:49:34.179Z,9.18
2022-11-13T20:52:00.401Z,9.16
2022-11-13T20:54:26.605Z,9.13
2022-11-13T20:56:52.836Z,9.17
2022-11-13T20:59:19.046Z,9.16
2022-11-13T21:01:45.380Z,9.09
2022-11-13T21:04:11.649Z,9.02
2022-11-13T21:06:38.045Z,8.98
2022-11-13T21:09:04.343Z,8.90
2022-11-13T21:11:30.546Z,8.89
2022-11-13T21:13:56.829Z,8.87
2022-11-13T21:16:23.038Z,8.83
2022-11-13T21:18:49.245Z,8.98
2022-11-13T21:21:19.512Z,8.91
2022-11-13T21:23:46.146Z,8.77
2022-11-13T21:26:12.404Z,8.78
2022-11-13T21:28:38.988Z,8.78
2022-11-13T21:31:13.340Z,8.82
2022-11-13T21:33:40.180Z,8.83
2022-11-13T21:36:07.076Z,8.81
2022-11-13T21:38:33.302Z,8.82
2022-11-13T21:41:00.142Z,8.76
2022-11-13T21:43:26.352Z,8.69
2022-11-13T21:45:52.546Z,8.70
2022-11-13T21:48:18.761Z,8.67
2022-11-13T21:50:45.055Z,8.77
2022-11-13T21:53:11.592Z,8.70
2022-11-13T21:55:37.797Z,8.69
2022-11-13T21:58:04.003Z,8.67
2022-11-13T22:00:30.207Z,8.64
2022-11-13T22:02:56.410Z,8.62
2022-11-13T22:05:22.604Z,8.60
2022-11-13T22:07:48.802Z,8.57
2022-11-13T22:10:15.164Z,8.57
2022-11-13T22:12:41.375Z,8.53
2022-11-13T22:15:08.110Z,8.53
2022-11-13T22:17:34.333Z,8.57
2022-11-13T22:20:00.596Z,8.57
2022-11-13T22:22:26.831Z,8.56
2022-11-13T22:24:53.036Z,8.50
2022-11-13T22:27:19.227Z,8.45
2022-11-13T22:29:45.437Z,8.44
2022-11-13T22:32:11.628Z,8.40
2022-11-13T22:34:37.842Z,8.44
2022-11-13T22:37:04.054Z,8.38
2022-11-13T22:39:30.274Z,8.44
2022-11-13T22:41:56.485Z,8.42
2022-11-13T22:44:24.323Z,8.42
2022-11-13T22:46:52.345Z,8.43
2022-11-13T22:49:18.568Z,8.34
2022-11-13T22:51:44.765Z,8.38
2022-11-13T22:54:11.491Z,8.32
2022-11-13T22:56:38.227Z,8.28
2022-11-13T22:59:05.047Z,8.28
2022-11-13T23:01:31.893Z,8.28
2022-11-13T23:03:59.443Z,8.27
2022-11-13T23:06:26.261Z,8.22
2022-11-13T23:08:52.568Z,8.29
2022-11-13T23:11:19.823Z,8.24
2022-11-13T23:13:47.087Z,8.13
2022-11-13T23:16:13.307Z,8.16
2022-11-13T23:18:39.514Z,8.10
2022-11-13T23:21:05.922Z,8.16
2022-11-13T23:23:32.129Z,8.13
2022-11-13T23:25:58.332Z,8.09
2022-11-13T23:28:24.534Z,8.02
2022-11-13T23:30:50.736Z,7.97
2022-11-13T23:33:16.941Z,7.97
2022-11-13T23:35:43.146Z,8.04
2022-11-13T23:38:10.341Z,7.97
2022-11-13T23:40:36.610Z,8.00
2022-11-13T23:43:02.825Z,7.95
2022-11-13T23:45:29.031Z,7.91
2022-11-13T23:47:55.245Z,7.93
2022-11-13T23:50:21.456Z,7.91
2022-11-13T23:52:47.848Z,7.91
2022-11-13T23:55:14.114Z,7.88
2022-11-13T23:57:40.329Z,7.91
